Time;durP1;ratioP1;P1;durP2;ratioP2;P2;SDS_P1;SDS_P2;PMS_P1;PMS_P2;Temp;Humidity;BMP_temperature;BMP_pressure;BME280_temperature;BME280_humidity;BME280_pressure;Samples;Min_cycle;Max_cycle;Signal;HPM_P1;HPM_P2
2023/07/04 00:00:55;;;;;;;90.38;5.85;;;;;;;24.87;60.80;99043.22;7308494;19;130408;-40
2023/07/04 00:03:21;;;;;;;79.88;5.20;;;;;;;24.88;60.69;99044.84;7305225;19;130425;-39
2023/07/04 00:05:48;;;;;;;84.57;5.70;;;;;;;24.88;61.02;99052.75;7306295;19;129728;-40
2023/07/04 00:08:13;;;;;;;103.63;6.55;;;;;;;24.87;60.65;99040.59;7304914;19;129601;-40
2023/07/04 00:10:38;;;;;;;61.53;4.10;;;;;;;24.87;60.68;99056.38;7308196;19;130709;-41
2023/07/04 00:13:04;;;;;;;92.47;5.80;;;;;;;24.88;60.63;99045.69;7305885;19;129572;-42
2023/07/04 00:15:29;;;;;;;81.97;5.27;;;;;;;24.79;61.22;99027.50;7307669;19;131004;-40
2023/07/04 00:17:55;;;;;;;84.33;5.10;;;;;;;24.90;61.06;99045.50;7305069;19;130092;-40
2023/07/04 00:20:20;;;;;;;97.17;6.07;;;;;;;24.89;60.94;99044.69;7306704;19;130996;-38
2023/07/04 00:22:45;;;;;;;76.73;4.97;;;;;;;24.86;60.80;99038.97;7304727;19;129910;-42
2023/07/04 00:25:11;;;;;;;62.47;3.90;;;;;;;24.90;61.33;99050.75;7306918;19;130153;-39
2023/07/04 00:27:36;;;;;;;98.73;6.10;;;;;;;24.90;61.13;99042.88;7306129;19;129248;-39
2023/07/04 00:30:04;;;;;;;89.87;5.57;;;;;;;24.89;60.54;99043.88;7303480;19;129200;-41
2023/07/04 00:32:29;;;;;;;47.33;3.65;;;;;;;24.88;60.98;99053.56;7304757;19;129773;-42
2023/07/04 00:34:55;;;;;;;97.97;5.77;;;;;;;24.88;60.61;99052.75;7306393;19;129722;-40
2023/07/04 00:37:21;;;;;;;80.63;5.00;;;;;;;24.87;60.97;99051.13;7306502;19;130179;-40
2023/07/04 00:39:50;;;;;;;88.43;5.50;;;;;;;24.88;61.24;99058.00;7304095;19;130186;-40
2023/07/04 00:42:15;;;;;;;69.22;4.55;;;;;;;24.87;60.72;99045.84;7304690;19;129485;-40
2023/07/04 00:44:47;;;;;;;80.37;5.03;;;;;;;24.88;61.37;99044.84;7306647;19;130029;-41
2023/07/04 00:47:21;;;;;;;141.40;8.38;;;;;;;24.88;61.00;99039.59;7304425;19;129656;-40
2023/07/04 00:49:57;;;;;;;79.15;5.13;;;;;;;24.89;61.69;99039.41;7304710;19;129622;-38
2023/07/04 00:52:32;;;;;;;64.32;4.20;;;;;;;24.88;61.81;99043.06;7307274;19;131397;-40
2023/07/04 00:55:01;;;;;;;102.25;6.07;;;;;;;24.89;61.38;99049.94;7305329;19;130855;-41
2023/07/04 00:57:31;;;;;;;94.78;5.47;;;;;;;24.89;61.14;99049.94;7306524;19;129342;-40
2023/07/04 01:00:01;;;;;;;104.05;6.50;;;;;;;24.88;60.95;99058.81;7303398;19;131488;-41
2023/07/04 01:02:33;;;;;;;87.78;5.20;;;;;;;24.88;61.67;99047.47;7304969;19;129453;-39
2023/07/04 01:05:00;;;;;;;83.60;5.15;;;;;;;24.88;60.83;99047.47;7304777;19;129943;-40
2023/07/04 01:07:40;;;;;;;59.15;4.07;;;;;;;24.89;60.99;99049.94;7303841;19;130054;-45
2023/07/04 01:10:14;;;;;;;83.88;5.35;;;;;;;24.89;60.61;99049.94;7303639;19;129936;-40
2023/07/04 01:12:40;;;;;;;83.18;5.20;;;;;;;24.87;61.03;99051.13;7305143;19;129678;-41
2023/07/04 01:15:08;;;;;;;83.53;5.32;;;;;;;24.85;61.56;99042.56;7305489;19;129330;-40
2023/07/04 01:17:35;;;;;;;57.10;3.92;;;;;;;24.88;61.39;99052.75;7305271;19;130316;-39
2023/07/04 01:20:06;;;;;;;62.58;4.25;;;;;;;24.88;61.44;99050.13;7303885;19;130608;-39
2023/07/04 01:22:50;;;;;;;67.68;4.45;;;;;;;24.90;61.49;99041.06;7304926;19;129539;-39
2023/07/04 01:25:56;;;;;;;80.30;5.18;;;;;;;24.91;61.39;99041.88;7304936;19;129186;-39
2023/07/04 01:28:23;;;;;;;87.78;5.65;;;;;;;24.88;61.33;99036.97;7301394;19;130800;-40
2023/07/04 01:30:49;;;;;;;75.18;4.70;;;;;;;24.87;61.27;99040.59;7304089;19;129814;-40
2023/07/04 01:33:17;;;;;;;87.07;5.53;;;;;;;24.87;61.06;99040.59;7305576;19;129252;-38
2023/07/04 01:35:43;;;;;;;88.45;5.72;;;;;;;24.87;60.99;99051.94;7304700;19;129660;-39
2023/07/04 01:38:08;;;;;;;98.00;6.13;;;;;;;24.88;61.40;99042.22;7302629;19;130024;-39
2023/07/04 01:40:34;;;;;;;73.13;4.83;;;;;;;24.87;61.01;99046.69;7303075;19;132452;-40
2023/07/04 01:43:03;;;;;;;81.30;5.13;;;;;;;24.90;61.41;99040.25;7303497;19;130441;-42
2023/07/04 01:45:29;;;;;;;84.63;5.47;;;;;;;24.77;61.53;99022.44;7304436;19;130334;-42
2023/07/04 01:47:54;;;;;;;71.00;4.30;;;;;;;24.87;61.00;99044.06;7303404;19;130342;-39
2023/07/04 01:50:20;;;;;;;64.07;4.30;;;;;;;24.88;61.43;99047.47;7304525;19;130271;-39
2023/07/04 01:52:46;;;;;;;92.53;6.03;;;;;;;24.89;60.99;99046.50;7303294;19;130598;-40
2023/07/04 01:55:14;;;;;;;65.77;4.07;;;;;;;24.87;61.19;99045.84;7304823;19;130397;-39
2023/07/04 01:57:40;;;;;;;77.63;5.03;;;;;;;24.88;61.34;99042.22;7302789;19;129552;-40
2023/07/04 02:00:09;;;;;;;95.20;5.72;;;;;;;24.86;61.44;99031.88;7301847;19;129734;-40
2023/07/04 02:02:36;;;;;;;91.95;5.60;;;;;;;24.87;60.65;99046.69;7304496;19;130022;-41
2023/07/04 02:05:01;;;;;;;80.78;5.07;;;;;;;24.87;61.17;99040.59;7304464;19;129566;-40
2023/07/04 02:07:27;;;;;;;70.97;4.63;;;;;;;24.88;61.23;99027.28;7301968;19;130510;-40
2023/07/04 02:09:52;;;;;;;45.17;3.37;;;;;;;24.79;61.17;99007.28;7301234;19;130454;-42
2023/07/04 02:12:18;;;;;;;90.10;5.37;;;;;;;24.87;61.33;99024.81;7303324;19;130151;-42
2023/07/04 02:14:44;;;;;;;95.67;6.17;;;;;;;24.88;61.51;99024.66;7303425;19;129379;-41
2023/07/04 02:17:09;;;;;;;95.28;6.00;;;;;;;24.89;61.07;99028.91;7301483;19;130201;-40
2023/07/04 02:19:35;;;;;;;76.63;4.63;;;;;;;24.88;60.74;99022.00;7303665;19;130669;-40
2023/07/04 02:22:00;;;;;;;87.13;5.43;;;;;;;24.88;61.03;99042.22;7301687;19;129431;-41
2023/07/04 02:24:26;;;;;;;53.93;3.53;;;;;;;24.87;60.73;99035.34;7304351;19;130060;-42
2023/07/04 02:26:51;;;;;;;91.30;5.57;;;;;;;24.88;60.96;99021.19;7299364;19;129101;-39
2023/07/04 02:29:16;;;;;;;117.70;7.10;;;;;;;24.86;61.40;99016.09;7294771;19;131152;-40
2023/07/04 02:31:42;;;;;;;107.53;6.77;;;;;;;24.91;61.29;99015.56;7296934;19;129654;-39
2023/07/04 02:34:07;;;;;;;63.17;4.27;;;;;;;24.89;60.82;99026.25;7303197;19;132031;-41
2023/07/04 02:36:32;;;;;;;71.70;4.40;;;;;;;24.86;61.12;99034.50;7303846;19;130222;-38
2023/07/04 02:38:58;;;;;;;105.60;6.23;;;;;;;24.82;61.30;99027.16;7299766;19;131091;-41
2023/07/04 02:41:23;;;;;;;83.13;5.20;;;;;;;24.90;60.96;99025.28;7303822;19;129794;-42
2023/07/04 02:43:50;;;;;;;77.67;4.90;;;;;;;24.88;61.09;99022.00;7300480;19;130255;-38
2023/07/04 02:46:15;;;;;;;;;;;;;;;24.96;61.29;99029.00;7303233;19;129615;-41
2023/07/04 02:48:41;;;;;;;99.30;6.07;;;;;;;24.90;61.37;99029.72;7299706;19;130564;-39
2023/07/04 02:51:07;;;;;;;70.90;4.43;;;;;;;24.91;61.00;99031.34;7302132;19;129274;-39
2023/07/04 02:53:32;;;;;;;89.57;5.23;;;;;;;24.91;61.25;99020.84;7302354;19;129540;-39
2023/07/04 02:55:58;;;;;;;94.00;5.67;;;;;;;24.90;61.09;99024.47;7302172;19;130090;-39
2023/07/04 02:58:23;;;;;;;109.03;6.40;;;;;;;24.89;60.69;99025.47;7299393;19;129530;-40
2023/07/04 03:00:49;;;;;;;65.43;3.97;;;;;;;24.88;61.46;99024.66;7301345;19;129805;-40
2023/07/04 03:03:16;;;;;;;79.88;4.90;;;;;;;24.90;60.80;99027.94;7300894;19;130137;-39
2023/07/04 03:05:42;;;;;;;99.47;6.07;;;;;;;24.90;61.17;99024.47;7300942;19;129357;-39
2023/07/04 03:08:08;;;;;;;99.77;6.07;;;;;;;24.91;61.06;99026.91;7295756;19;130463;-37
2023/07/04 03:10:33;;;;;;;92.40;5.73;;;;;;;24.89;61.50;99034.16;7300138;19;130595;-38
2023/07/04 03:12:59;;;;;;;87.50;5.40;;;;;;;24.90;61.26;99027.09;7299971;19;130874;-40
2023/07/04 03:15:24;;;;;;;108.90;6.50;;;;;;;24.88;60.54;99037.78;7301131;19;130306;-42
2023/07/04 03:17:50;;;;;;;103.53;6.17;;;;;;;24.88;61.17;99039.59;7301770;19;129974;-38
2023/07/04 03:20:15;;;;;;;78.03;4.73;;;;;;;24.90;61.01;99048.97;7300356;19;129222;-33
2023/07/04 03:22:42;;;;;;;78.47;4.93;;;;;;;24.90;61.34;99056.84;7300575;19;129868;-39
2023/07/04 03:25:08;;;;;;;89.03;5.50;;;;;;;24.89;61.14;99049.13;7300207;19;130563;-45
2023/07/04 03:27:36;;;;;;;74.93;4.78;;;;;;;24.88;61.32;99048.31;7298200;19;129690;-39
2023/07/04 03:30:02;;;;;;;77.68;4.85;;;;;;;24.88;60.64;99050.13;7297942;19;130520;-45
2023/07/04 03:32:28;;;;;;;87.55;5.63;;;;;;;24.79;61.04;99028.31;7298850;19;129555;-38
2023/07/04 03:34:55;;;;;;;101.77;6.17;;;;;;;24.89;61.46;99059.66;7300806;19;129950;-36
2023/07/04 03:37:20;;;;;;;72.35;4.63;;;;;;;24.89;61.25;99055.19;7300405;19;131127;-33
2023/07/04 03:39:46;;;;;;;61.17;4.20;;;;;;;24.89;61.49;99060.44;7298379;19;129653;-39
2023/07/04 03:42:11;;;;;;;95.83;6.33;;;;;;;24.89;60.71;99060.44;7302400;19;130959;-40
2023/07/04 03:44:36;;;;;;;98.17;5.73;;;;;;;24.89;60.72;99064.91;7301887;19;130162;-39
2023/07/04 03:47:02;;;;;;;100.43;6.40;;;;;;;24.89;61.28;99055.19;7300996;19;131060;-40
2023/07/04 03:49:27;;;;;;;43.13;2.93;;;;;;;24.90;61.10;99064.75;7299995;19;130902;-35
2023/07/04 03:51:53;;;;;;;105.90;6.47;;;;;;;24.90;61.46;99056.03;7302400;19;131068;-34
2023/07/04 03:54:18;;;;;;;89.60;5.43;;;;;;;24.90;60.98;99056.84;7297000;19;130569;-40
2023/07/04 03:56:43;;;;;;;103.17;6.83;;;;;;;24.90;60.90;99062.13;7294154;19;132154;-39
2023/07/04 03:59:09;;;;;;;100.97;6.17;;;;;;;24.90;60.99;99066.53;7295923;19;129798;-33
2023/07/04 04:01:34;;;;;;;94.47;5.97;;;;;;;24.88;61.02;99058.81;7298448;19;129667;-37
2023/07/04 04:03:59;;;;;;;80.40;4.90;;;;;;;24.90;60.94;99056.03;7302701;19;130909;-44
2023/07/04 04:06:25;;;;;;;97.93;6.10;;;;;;;24.91;60.58;99057.66;7305781;19;131973;-41
2023/07/04 04:08:50;;;;;;;130.13;8.40;;;;;;;24.86;61.06;99054.75;7302646;19;131432;-40
2023/07/04 04:11:16;;;;;;;105.73;6.30;;;;;;;24.90;60.70;99066.53;7304094;19;130017;-38
2023/07/04 04:13:41;;;;;;;70.00;4.53;;;;;;;24.86;60.80;99055.53;7304070;19;131048;-38
2023/07/04 04:16:07;;;;;;;88.63;5.50;;;;;;;24.89;61.06;99073.59;7304707;19;132020;-38
2023/07/04 04:18:33;;;;;;;88.67;5.77;;;;;;;24.90;60.93;99071.81;7302208;19;130061;-41
2023/07/04 04:20:58;;;;;;;100.77;5.87;;;;;;;24.90;61.14;99072.63;7307209;19;131076;-40
2023/07/04 04:23:23;;;;;;;64.30;4.30;;;;;;;24.90;60.46;99080.53;7305277;19;130019;-45
2023/07/04 04:25:49;;;;;;;90.93;5.77;;;;;;;24.88;60.75;99076.41;7308872;19;131196;-37
2023/07/04 04:28:15;;;;;;;100.20;6.17;;;;;;;24.83;61.25;99076.09;7305005;19;129294;-34
2023/07/04 04:30:40;;;;;;;96.07;5.90;;;;;;;24.87;60.96;99080.03;7307420;19;129394;-40
2023/07/04 04:33:07;;;;;;;76.73;4.77;;;;;;;24.87;60.95;99085.31;7306379;19;130423;-38
2023/07/04 04:35:33;;;;;;;84.70;5.38;;;;;;;24.87;60.54;99090.56;7305720;19;129672;-42
2023/07/04 04:37:59;;;;;;;86.10;5.17;;;;;;;24.84;60.49;99085.66;7303407;19;129856;-35
2023/07/04 04:40:25;;;;;;;81.13;5.13;;;;;;;24.87;60.88;99090.56;7305639;19;131090;-37
2023/07/04 04:42:53;;;;;;;69.90;4.80;;;;;;;24.87;60.85;99098.44;7302914;19;130460;-37
2023/07/04 04:45:19;;;;;;;100.60;6.55;;;;;;;24.86;60.48;99096.81;7303303;19;131195;-37
2023/07/04 04:47:52;;;;;;;90.70;5.68;;;;;;;24.88;60.42;99092.19;7303543;19;129017;-35
2023/07/04 04:50:19;;;;;;;99.60;6.20;;;;;;;24.87;61.24;99098.44;7303618;19;129236;-33
2023/07/04 04:52:45;;;;;;;89.65;5.68;;;;;;;24.88;60.63;99100.06;7306774;19;129674;-33
2023/07/04 04:55:10;;;;;;;78.27;4.93;;;;;;;24.87;60.78;99103.72;7300904;19;129214;-38
2023/07/04 04:57:35;;;;;;;79.47;4.87;;;;;;;24.84;60.89;99098.81;7304798;19;130198;-34
2023/07/04 05:00:02;;;;;;;105.90;6.23;;;;;;;24.87;60.60;99103.72;7300910;19;129856;-41
2023/07/04 05:02:30;;;;;;;84.90;5.30;;;;;;;24.88;61.02;99115.84;7304192;19;129864;-38
2023/07/04 05:04:56;;;;;;;109.30;6.68;;;;;;;24.87;60.68;99119.47;7301986;19;129910;-42
2023/07/04 05:07:23;;;;;;;64.80;4.10;;;;;;;24.84;60.46;99115.38;7305461;19;129557;-43
2023/07/04 05:09:53;;;;;;;114.72;6.95;;;;;;;24.78;60.93;99099.47;7300213;19;130102;-39
2023/07/04 05:12:19;;;;;;;84.97;5.30;;;;;;;24.86;60.74;99123.13;7300306;19;131159;-39
2023/07/04 05:14:44;;;;;;;102.67;6.63;;;;;;;24.87;61.30;99130.00;7303683;19;131127;-35
2023/07/04 05:17:10;;;;;;;92.53;6.00;;;;;;;24.87;61.03;99130.00;7303593;19;130858;-42
2023/07/04 05:19:35;;;;;;;134.70;7.97;;;;;;;24.84;60.82;99120.63;7294100;19;129596;-46
2023/07/04 05:22:01;;;;;;;139.97;8.30;;;;;;;24.89;60.92;99128.03;7302119;19;130105;-42
2023/07/04 05:24:26;;;;;;;124.20;7.40;;;;;;;24.90;61.00;99129.66;7301127;19;129207;-34
2023/07/04 05:26:52;;;;;;;79.13;5.13;;;;;;;24.88;60.39;99124.56;7304103;19;130413;-36
2023/07/04 05:29:17;;;;;;;98.13;6.03;;;;;;;24.90;60.71;99127.03;7302116;19;129200;-37
2023/07/04 05:31:43;;;;;;;92.67;5.60;;;;;;;24.88;60.53;99137.72;7304127;19;130844;-39
2023/07/04 05:34:08;;;;;;;75.63;4.83;;;;;;;24.88;60.75;99137.72;7304081;19;130140;-39
2023/07/04 05:36:34;;;;;;;69.27;4.23;;;;;;;24.88;60.72;99131.63;7305845;19;129713;-41
2023/07/04 05:39:02;;;;;;;103.70;6.40;;;;;;;24.88;60.84;99131.63;7302259;19;129435;-33
2023/07/04 05:41:30;;;;;;;97.28;6.07;;;;;;;24.87;61.27;99141.34;7304742;19;129285;-36
2023/07/04 05:43:58;;;;;;;64.68;4.13;;;;;;;24.86;60.93;99144.16;7302157;19;131033;-42
2023/07/04 05:46:24;;;;;;;76.57;4.93;;;;;;;24.86;60.71;99144.16;7304677;19;130509;-39
2023/07/04 05:48:49;;;;;;;98.00;6.00;;;;;;;24.83;60.71;99139.22;7302991;19;130917;-37
2023/07/04 05:51:17;;;;;;;82.70;5.30;;;;;;;24.85;60.83;99143.31;7305319;19;129657;-41
2023/07/04 05:53:47;;;;;;;91.78;5.88;;;;;;;24.86;61.17;99144.16;7304333;19;130364;-41
2023/07/04 05:56:21;;;;;;;69.00;4.57;;;;;;;24.85;60.76;99158.28;7304560;19;130838;-35
2023/07/04 05:58:49;;;;;;;91.97;5.82;;;;;;;24.85;60.58;99156.47;7301906;19;129174;-40
2023/07/04 06:01:18;;;;;;;80.80;5.28;;;;;;;24.77;60.87;99145.16;7305941;19;129777;-38
2023/07/04 06:03:44;;;;;;;85.05;5.65;;;;;;;24.83;60.97;99150.56;7303126;19;132944;-34
2023/07/04 06:06:37;;;;;;;76.53;5.37;;;;;;;24.88;60.95;99150.03;7304286;19;129361;-40
2023/07/04 06:09:05;;;;;;;82.85;5.20;;;;;;;24.85;60.99;99153.00;7301353;19;133644;-39
2023/07/04 06:11:38;;;;;;;75.57;5.00;;;;;;;24.85;60.58;99147.75;7302973;19;131236;-39
2023/07/04 06:14:05;;;;;;;104.45;6.20;;;;;;;24.85;60.66;99158.28;7302063;19;130269;-38
2023/07/04 06:16:32;;;;;;;85.18;5.65;;;;;;;24.83;60.42;99160.25;7304472;19;129935;-37
2023/07/04 06:18:57;;;;;;;;;;;;;;;24.93;60.73;99155.59;7299936;19;130453;-35
2023/07/04 06:21:24;;;;;;;88.87;5.93;;;;;;;24.79;60.52;99151.09;7304130;19;130930;-31
2023/07/04 06:23:51;;;;;;;86.45;5.55;;;;;;;24.85;60.60;99163.53;7302790;19;130287;-41
2023/07/04 06:26:17;;;;;;;81.90;5.53;;;;;;;24.85;60.53;99156.47;7302491;19;129447;-40
2023/07/04 06:28:42;;;;;;;54.30;3.80;;;;;;;24.86;61.05;99157.31;7301222;19;130425;-35
2023/07/04 06:31:15;;;;;;;93.67;5.60;;;;;;;24.86;61.35;99171.25;7303577;19;130724;-39
2023/07/04 06:33:41;;;;;;;102.20;6.53;;;;;;;24.83;60.69;99165.50;7304652;19;130649;-40
2023/07/04 06:36:11;;;;;;;102.53;6.37;;;;;;;24.82;61.38;99175.22;7303879;19;129378;-36
2023/07/04 06:38:37;;;;;;;84.75;5.72;;;;;;;24.84;60.49;99177.69;7301540;19;129024;-33
2023/07/04 06:41:06;;;;;;;112.80;7.23;;;;;;;24.85;61.32;99174.06;7300797;19;130894;-38
2023/07/04 06:43:32;;;;;;;91.28;5.78;;;;;;;24.85;60.58;99176.69;7300244;19;129903;-35
2023/07/04 06:45:58;;;;;;;;;;;;;;;24.93;61.34;99174.00;7304537;19;130608;-36
2023/07/04 06:48:25;;;;;;;69.95;4.85;;;;;;;24.85;60.97;99174.06;7301969;19;129977;-33
2023/07/04 06:50:59;;;;;;;81.57;5.30;;;;;;;24.84;61.24;99165.34;7301092;19;131215;-40
2023/07/04 06:53:25;;;;;;;75.20;4.72;;;;;;;24.82;60.97;99180.50;7304220;19;130187;-38
2023/07/04 06:55:52;;;;;;;109.45;6.90;;;;;;;24.74;61.21;99161.28;7302226;19;129681;-41
2023/07/04 06:58:17;;;;;;;87.60;5.63;;;;;;;24.81;60.48;99168.31;7302734;19;129484;-33
2023/07/04 07:00:43;;;;;;;67.33;4.63;;;;;;;24.80;60.58;99166.69;7301992;19;129721;-38
2023/07/04 07:03:08;;;;;;;69.70;4.97;;;;;;;24.81;61.35;99167.50;7304329;19;130520;-39
2023/07/04 07:05:41;;;;;;;122.80;7.37;;;;;;;24.81;61.40;99175.41;7301517;19;129073;-39
2023/07/04 07:08:06;;;;;;;82.10;5.30;;;;;;;24.80;60.75;99184.25;7301853;19;129741;-42
2023/07/04 07:10:36;;;;;;;82.47;5.40;;;;;;;24.80;61.02;99176.38;7302447;19;129528;-37
2023/07/04 07:13:04;;;;;;;85.10;5.45;;;;;;;24.78;60.48;99178.34;7302579;19;130327;-34
2023/07/04 07:15:30;;;;;;;99.35;6.13;;;;;;;24.78;60.56;99179.19;7302040;19;129888;-33
2023/07/04 07:17:56;;;;;;;71.97;4.83;;;;;;;24.80;61.00;99197.41;7301143;19;129779;-34
2023/07/04 07:20:22;;;;;;;85.35;5.53;;;;;;;24.79;60.61;99185.25;7302776;19;130235;-32
2023/07/04 07:22:47;;;;;;;74.17;5.03;;;;;;;24.80;61.37;99186.88;7301379;19;130172;-38
2023/07/04 07:25:13;;;;;;;91.27;5.90;;;;;;;24.80;61.10;99192.16;7303102;19;129412;-39
2023/07/04 07:27:38;;;;;;;76.43;5.10;;;;;;;24.70;60.56;99175.75;7301625;19;129890;-41
2023/07/04 07:30:04;;;;;;;82.73;5.30;;;;;;;24.79;60.68;99198.41;7300594;19;130117;-34
2023/07/04 07:32:30;;;;;;;81.83;5.30;;;;;;;24.78;60.97;99192.31;7300902;19;129957;-38
2023/07/04 07:34:56;;;;;;;114.47;6.85;;;;;;;24.80;60.68;99192.16;7300430;19;129188;-38
2023/07/04 07:37:22;;;;;;;69.53;4.50;;;;;;;24.79;61.31;99191.31;7302006;19;129889;-43
2023/07/04 07:39:50;;;;;;;96.97;6.13;;;;;;;24.79;60.76;99185.25;7305998;19;130750;-39
2023/07/04 07:42:16;;;;;;;93.10;5.85;;;;;;;24.79;60.45;99190.53;7308057;19;131801;-37
2023/07/04 07:44:42;;;;;;;102.25;6.15;;;;;;;24.76;60.53;99180.34;7305314;19;130844;-39
2023/07/04 07:47:10;;;;;;;126.63;7.73;;;;;;;24.79;61.16;99188.69;7308079;19;129607;-40
2023/07/04 07:49:36;;;;;;;87.32;5.75;;;;;;;24.78;60.57;99191.50;7305655;19;129579;-39
2023/07/04 07:52:01;;;;;;;79.53;5.00;;;;;;;24.79;61.27;99187.91;7307966;19;129827;-38
2023/07/04 07:54:27;;;;;;;119.03;7.27;;;;;;;24.79;60.97;99191.31;7307373;19;130419;-34
2023/07/04 07:56:52;;;;;;;85.27;5.40;;;;;;;24.80;61.02;99192.16;7308069;19;129417;-40
2023/07/04 07:59:17;;;;;;;56.53;4.13;;;;;;;24.79;60.59;99180.00;7306785;19;130315;-37
2023/07/04 08:01:43;;;;;;;107.73;6.80;;;;;;;24.79;61.13;99178.16;7307519;19;129494;-41
2023/07/04 08:04:09;;;;;;;85.80;5.30;;;;;;;24.78;61.03;99184.44;7308572;19;129489;-39
2023/07/04 08:06:43;;;;;;;78.35;5.00;;;;;;;24.79;61.16;99190.53;7310271;19;130052;-35
2023/07/04 08:09:11;;;;;;;78.13;5.05;;;;;;;24.77;61.20;99187.22;7305038;19;129500;-39
2023/07/04 08:11:38;;;;;;;85.82;5.55;;;;;;;24.75;61.07;99183.94;7308551;19;129862;-40
2023/07/04 08:14:04;;;;;;;108.13;6.32;;;;;;;24.77;60.64;99190.69;7309443;19;130392;-34
2023/07/04 08:16:41;;;;;;;84.37;5.23;;;;;;;24.79;61.32;99191.31;7309603;19;129865;-40
2023/07/04 08:19:06;;;;;;;64.50;4.55;;;;;;;24.79;61.00;99195.78;7307433;19;129347;-46
2023/07/04 08:21:33;;;;;;;111.23;6.93;;;;;;;24.79;60.38;99196.56;7308265;19;130735;-34
2023/07/04 08:23:59;;;;;;;99.95;5.93;;;;;;;24.70;60.55;99191.53;7306386;19;129003;-38
2023/07/04 08:26:26;;;;;;;82.13;5.23;;;;;;;24.77;60.79;99198.59;7307461;19;129942;-35
2023/07/04 08:28:53;;;;;;;100.35;6.15;;;;;;;24.67;60.71;99183.94;7305334;19;130540;-38
2023/07/04 08:31:19;;;;;;;90.18;5.90;;;;;;;24.78;60.59;99197.59;7305431;19;129544;-41
2023/07/04 08:33:45;;;;;;;99.10;6.57;;;;;;;24.75;60.74;99189.22;7306661;19;129001;-38
2023/07/04 08:36:11;;;;;;;;;;;;;;;24.85;61.75;99206.44;7309139;19;130049;-40
2023/07/04 08:38:37;;;;;;;103.30;6.32;;;;;;;24.79;60.90;99207.09;7304893;19;130425;-34
2023/07/04 08:41:08;;;;;;;80.30;5.60;;;;;;;24.77;61.37;99197.75;7304266;19;129996;-36
2023/07/04 08:43:48;;;;;;;87.20;5.60;;;;;;;24.78;61.42;99194.94;7304961;19;129528;-39
2023/07/04 08:46:18;;;;;;;90.55;5.88;;;;;;;24.77;61.18;99197.75;7305212;19;129794;-38
2023/07/04 08:48:45;;;;;;;105.45;7.07;;;;;;;24.77;61.22;99197.75;7300208;19;131038;-36
2023/07/04 08:51:17;;;;;;;82.32;5.55;;;;;;;24.78;61.85;99199.38;7304043;19;130490;-39
2023/07/04 08:53:47;;;;;;;72.28;5.03;;;;;;;24.77;61.27;99195.13;7303341;19;130161;-39
2023/07/04 08:56:23;;;;;;;85.97;5.78;;;;;;;24.77;61.50;99203.84;7304450;19;129296;-38
2023/07/04 08:59:05;;;;;;;106.40;6.60;;;;;;;24.78;61.85;99204.63;7299644;19;133098;-39
2023/07/04 09:02:00;;;;;;;100.50;6.18;;;;;;;24.79;61.61;99201.03;7305113;19;131823;-37
2023/07/04 09:04:50;;;;;;;83.53;5.35;;;;;;;24.68;61.75;99182.97;7304399;19;129848;-31
2023/07/04 09:07:21;;;;;;;111.75;7.00;;;;;;;24.77;60.93;99205.63;7303199;19;129902;-37
2023/07/04 09:10:22;;;;;;;106.35;6.53;;;;;;;24.79;61.65;99206.28;7301788;19;129792;-39
2023/07/04 09:12:48;;;;;;;107.35;6.55;;;;;;;24.76;61.36;99211.91;7301312;19;131399;-40
2023/07/04 09:15:36;;;;;;;76.28;4.90;;;;;;;24.78;61.90;99209.91;7304743;19;130408;-44
2023/07/04 09:18:23;;;;;;;83.10;5.10;;;;;;;24.79;61.30;99206.28;7302789;19;130306;-36
2023/07/04 09:20:57;;;;;;;104.93;6.50;;;;;;;24.77;61.48;99205.63;7303123;19;129976;-37
2023/07/04 09:23:23;;;;;;;94.15;6.15;;;;;;;24.77;61.43;99208.28;7300700;19;130363;-30
2023/07/04 09:25:51;;;;;;;;;;;;;;;24.84;61.53;99206.63;7303534;19;129707;-40
2023/07/04 09:28:16;;;;;;;82.37;5.50;;;;;;;24.78;61.00;99197.59;7301922;19;130284;-34
2023/07/04 09:30:41;;;;;;;102.70;6.77;;;;;;;24.67;61.42;99181.31;7304493;19;129550;-34
2023/07/04 09:33:09;;;;;;;92.40;5.90;;;;;;;24.77;60.73;99208.28;7301750;19;130732;-33
2023/07/04 09:35:35;;;;;;;83.25;5.63;;;;;;;24.76;60.54;99204.81;7302963;19;129138;-35
2023/07/04 09:38:01;;;;;;;88.77;5.53;;;;;;;24.75;61.16;99204.97;7304500;19;129825;-37
2023/07/04 09:40:46;;;;;;;;;;;;;;;24.82;61.75;99212.03;7302953;19;131255;-37
2023/07/04 09:43:25;;;;;;;94.93;6.15;;;;;;;24.77;61.33;99203.00;7302725;19;130516;-38
2023/07/04 09:45:50;;;;;;;88.53;5.65;;;;;;;24.74;60.76;99198.94;7306111;19;130378;-37
2023/07/04 09:48:24;;;;;;;83.27;5.47;;;;;;;24.76;61.60;99206.66;7302392;19;129879;-40
2023/07/04 09:50:49;;;;;;;98.95;6.28;;;;;;;24.75;61.06;99205.81;7301717;19;131076;-42
2023/07/04 09:53:19;;;;;;;100.73;6.43;;;;;;;24.77;61.48;99208.28;7300843;19;132119;-39
2023/07/04 09:56:01;;;;;;;82.65;5.22;;;;;;;24.76;62.05;99198.75;7299536;19;130807;-66
2023/07/04 09:58:28;;;;;;;104.95;5.78;;;;;;;24.73;60.96;99207.78;7302106;19;129698;-67
2023/07/04 10:01:08;;;;;;;47.95;3.25;;;;;;;24.77;61.37;99213.53;7300722;19;130041;-72
2023/07/04 10:03:35;;;;;;;66.68;4.13;;;;;;;24.77;61.79;99203.84;7308195;19;132144;-70
2023/07/04 10:06:00;;;;;;;;;;;;;;;24.82;61.55;99208.59;7312633;19;129058;-68
2023/07/04 10:08:25;;;;;;;59.17;3.60;;;;;;;24.68;61.20;99182.97;7313627;19;129233;-72
2023/07/04 10:10:54;;;;;;;53.57;3.67;;;;;;;24.76;61.43;99204.81;7310170;19;131697;-70
2023/07/04 10:13:23;;;;;;;52.90;3.63;;;;;;;24.73;60.96;99206.94;7311339;19;132680;-70
2023/07/04 10:15:49;;;;;;;47.67;3.50;;;;;;;24.73;60.77;99196.44;7310048;19;130532;-69
2023/07/04 10:18:28;;;;;;;72.35;4.13;;;;;;;24.71;61.75;99198.44;7313579;19;129089;-68
2023/07/04 10:20:55;;;;;;;53.50;3.80;;;;;;;24.73;60.81;99207.78;7312768;19;129868;-71
2023/07/04 10:23:22;;;;;;;41.80;3.25;;;;;;;24.73;60.94;99202.53;7311599;19;132084;-70
2023/07/04 10:25:52;;;;;;;45.80;3.33;;;;;;;24.73;61.04;99192.00;7311992;19;129521;-70
2023/07/04 10:28:21;;;;;;;54.20;3.70;;;;;;;24.73;60.89;99197.25;7310998;19;129455;-71
2023/07/04 10:30:51;;;;;;;65.45;4.07;;;;;;;24.74;61.42;99203.34;7309969;19;129799;-72
2023/07/04 10:33:29;;;;;;;41.30;2.67;;;;;;;24.75;60.80;99202.34;7309201;19;132869;-72
2023/07/04 10:35:55;;;;;;;46.67;3.17;;;;;;;24.72;61.09;99189.56;7314553;19;128980;-71
2023/07/04 10:38:55;;;;;;;49.25;3.33;;;;;;;24.75;61.19;99194.47;7311121;19;129041;-73
2023/07/04 10:41:26;;;;;;;39.42;2.75;;;;;;;24.72;60.91;99190.38;7308564;19;129340;-70
2023/07/04 10:43:57;;;;;;;47.58;3.45;;;;;;;24.72;61.11;99184.28;7312706;19;129598;-72
2023/07/04 10:46:25;;;;;;;25.73;2.58;;;;;;;24.71;60.92;99190.56;7313219;19;128807;-70
2023/07/04 10:48:59;;;;;;;51.25;3.55;;;;;;;24.71;60.80;99180.03;7312995;19;129472;-72
2023/07/04 10:51:31;;;;;;;32.40;2.60;;;;;;;24.71;60.68;99172.94;7311395;19;129262;-72
2023/07/04 10:53:57;;;;;;;45.67;3.42;;;;;;;24.70;60.70;99176.59;7313205;19;129664;-72
2023/07/04 10:56:27;;;;;;;28.92;2.72;;;;;;;24.72;61.18;99179.88;7313103;19;129095;-69
2023/07/04 10:59:00;;;;;;;31.48;3.00;;;;;;;24.72;61.38;99177.25;7312492;19;129174;-72
2023/07/04 11:01:36;;;;;;;60.55;3.72;;;;;;;24.72;61.11;99179.03;7310969;19;129932;-72
2023/07/04 11:04:20;;;;;;;50.50;3.43;;;;;;;24.74;60.62;99180.53;7312297;19;129699;-72
2023/07/04 11:07:15;;;;;;;28.35;2.33;;;;;;;24.70;61.36;99165.22;7312360;19;129247;-70
2023/07/04 11:09:42;;;;;;;45.05;3.45;;;;;;;24.71;60.91;99170.31;7312938;19;128531;-70
2023/07/04 11:12:15;;;;;;;28.20;2.63;;;;;;;24.72;61.16;99174.59;7316665;19;129284;-71
2023/07/04 11:14:44;;;;;;;31.92;2.90;;;;;;;24.70;61.19;99181.84;7320427;19;129782;-71
2023/07/04 11:17:18;;;;;;;77.55;4.75;;;;;;;24.71;61.36;99166.88;7319317;19;128877;-72
2023/07/04 11:20:11;;;;;;;57.70;3.85;;;;;;;24.74;61.39;99177.06;7318882;19;128825;-70
2023/07/04 11:22:51;;;;;;;55.75;3.90;;;;;;;24.72;61.03;99171.16;7319186;19;129690;-72